createdAt,value
2017-12-25T00:01:03.976Z,6.30
2017-12-25T00:03:34.438Z,6.17
2017-12-25T00:06:04.822Z,6.37
2017-12-25T00:08:35.216Z,6.07
2017-12-25T00:11:05.470Z,5.97
2017-12-25T00:13:36.121Z,5.40
2017-12-25T00:16:07.136Z,6.17
2017-12-25T00:18:37.361Z,5.90
2017-12-25T00:21:07.597Z,5.50
2017-12-25T00:23:38.181Z,6.00
2017-12-25T00:26:08.400Z,5.57
2017-12-25T00:28:39.539Z,4.57
2017-12-25T00:31:09.729Z,4.90
2017-12-25T00:33:39.983Z,5.23
2017-12-25T00:36:10.206Z,4.73
2017-12-25T00:38:40.477Z,5.13
2017-12-25T00:41:10.714Z,4.80
2017-12-25T00:43:41.864Z,5.57
2017-12-25T00:46:12.983Z,4.43
2017-12-25T00:48:43.159Z,4.60
2017-12-25T00:51:13.416Z,3.93
2017-12-25T00:53:43.784Z,4.63
2017-12-25T00:56:14.002Z,4.20
2017-12-25T00:58:44.241Z,4.73
2017-12-25T01:01:14.464Z,3.90
2017-12-25T01:04:15.246Z,4.80
2017-12-25T01:06:45.498Z,5.00
2017-12-25T01:09:15.713Z,4.63
2017-12-25T01:11:46.160Z,4.40
2017-12-25T01:14:16.437Z,5.40
2017-12-25T01:16:46.627Z,4.77
2017-12-25T01:19:17.046Z,5.00
2017-12-25T01:21:47.244Z,4.97
2017-12-25T01:24:17.616Z,6.00
2017-12-25T01:26:47.841Z,5.00
2017-12-25T01:29:18.073Z,5.20
2017-12-25T01:31:48.785Z,5.40
2017-12-25T01:34:19.070Z,4.57
2017-12-25T01:36:49.511Z,5.33
2017-12-25T01:39:19.712Z,5.20
2017-12-25T01:41:50.277Z,4.90
2017-12-25T01:44:20.678Z,4.63
2017-12-25T01:46:59.703Z,5.30
2017-12-25T01:49:29.940Z,4.40
2017-12-25T01:52:00.857Z,4.80
2017-12-25T01:54:33.665Z,4.43
2017-12-25T01:57:09.909Z,4.87
2017-12-25T01:59:44.309Z,4.10
2017-12-25T02:02:15.556Z,4.80
2017-12-25T02:04:47.057Z,5.17
2017-12-25T02:08:27.560Z,4.90
2017-12-25T02:10:57.572Z,5.13
2017-12-25T02:13:27.868Z,4.50
2017-12-25T02:15:57.852Z,5.07
2017-12-25T02:18:28.061Z,4.57
2017-12-25T02:20:58.438Z,4.77
2017-12-25T02:23:28.800Z,5.70
2017-12-25T02:25:59.887Z,5.20
2017-12-25T02:28:30.417Z,5.30
2017-12-25T02:31:00.753Z,6.93
2017-12-25T02:33:31.918Z,6.23
2017-12-25T02:36:03.176Z,5.57
2017-12-25T02:38:34.134Z,5.93
2017-12-25T02:41:04.705Z,6.07
2017-12-25T02:43:34.916Z,5.30
2017-12-25T02:46:05.649Z,5.47
2017-12-25T02:48:36.885Z,6.70
2017-12-25T02:51:07.081Z,6.10
2017-12-25T02:53:37.451Z,6.50
2017-12-25T02:56:08.012Z,5.53
2017-12-25T02:58:38.954Z,5.33
2017-12-25T03:01:09.301Z,6.37
2017-12-25T03:03:39.501Z,6.37
2017-12-25T03:06:09.932Z,6.00
2017-12-25T03:08:40.495Z,5.97
2017-12-25T03:11:10.965Z,5.57
2017-12-25T03:13:42.049Z,5.00
2017-12-25T03:16:12.356Z,5.20
2017-12-25T03:18:43.379Z,5.53
2017-12-25T03:21:13.580Z,5.90
2017-12-25T03:23:43.760Z,5.57
2017-12-25T03:26:14.265Z,5.30
2017-12-25T03:28:44.508Z,4.87
2017-12-25T03:31:14.893Z,6.90
2017-12-25T03:33:45.981Z,5.70
2017-12-25T03:36:16.360Z,4.80
2017-12-25T03:38:46.685Z,5.77
2017-12-25T03:41:16.848Z,6.30
2017-12-25T03:43:47.065Z,5.33
2017-12-25T03:46:18.422Z,5.03
2017-12-25T03:48:48.598Z,5.40
2017-12-25T03:51:19.536Z,5.33
2017-12-25T03:53:49.868Z,5.60
2017-12-25T03:56:21.241Z,5.10
2017-12-25T03:58:51.408Z,5.33
2017-12-25T04:01:21.597Z,5.23
2017-12-25T04:03:51.948Z,4.97
2017-12-25T04:06:22.781Z,4.90
2017-12-25T04:08:53.789Z,4.70
2017-12-25T04:11:23.996Z,4.83
2017-12-25T04:13:54.331Z,4.90
2017-12-25T04:16:25.370Z,5.50
2017-12-25T04:18:56.127Z,4.63
2017-12-25T04:21:26.664Z,5.90
2017-12-25T04:23:56.797Z,5.20
2017-12-25T04:26:27.290Z,5.20
2017-12-25T04:28:58.241Z,5.60
2017-12-25T04:31:28.736Z,5.47
2017-12-25T04:33:58.888Z,4.73
2017-12-25T04:36:29.260Z,4.97
2017-12-25T04:39:00.209Z,4.53
2017-12-25T04:41:31.820Z,5.40
2017-12-25T04:44:02.246Z,6.13
2017-12-25T04:46:32.848Z,5.63
2017-12-25T04:49:03.534Z,5.63
2017-12-25T04:51:34.978Z,5.47
2017-12-25T04:54:05.241Z,6.57
2017-12-25T04:56:35.693Z,5.90
2017-12-25T04:59:05.965Z,6.80
2017-12-25T05:01:37.002Z,6.83
2017-12-25T05:04:08.177Z,6.93
2017-12-25T05:06:38.417Z,7.43
2017-12-25T05:09:09.130Z,7.30
2017-12-25T05:11:39.744Z,7.30
2017-12-25T05:14:09.945Z,6.77
2017-12-25T05:16:41.164Z,7.07
2017-12-25T05:19:11.342Z,7.60
2017-12-25T05:21:41.503Z,7.70
2017-12-25T05:24:11.941Z,6.70
2017-12-25T05:26:42.349Z,7.00
2017-12-25T05:29:12.793Z,7.67
2017-12-25T05:31:43.363Z,7.70
2017-12-25T05:34:13.819Z,9.03
2017-12-25T05:36:44.825Z,7.37
2017-12-25T05:39:15.222Z,8.87
2017-12-25T05:41:46.461Z,9.17
2017-12-25T05:44:19.196Z,8.27
2017-12-25T05:46:49.726Z,8.17
2017-12-25T05:49:19.992Z,8.93
2017-12-25T05:51:50.786Z,9.80
2017-12-25T05:54:20.980Z,8.60
2017-12-25T05:56:52.286Z,9.17
2017-12-25T05:59:22.744Z,8.80
2017-12-25T06:01:53.238Z,8.07
2017-12-25T06:04:23.707Z,9.30
2017-12-25T06:06:56.532Z,8.80
2017-12-25T06:09:26.673Z,8.30
2017-12-25T06:11:56.897Z,9.10
2017-12-25T06:14:27.464Z,8.67
2017-12-25T06:16:57.789Z,8.00
2017-12-25T06:19:28.277Z,7.77
2017-12-25T06:21:59.103Z,8.77
2017-12-25T06:24:29.698Z,7.20
2017-12-25T06:26:59.949Z,8.13
2017-12-25T06:29:30.853Z,9.00
2017-12-25T06:32:01.095Z,9.77
2017-12-25T06:34:31.645Z,9.37
2017-12-25T06:37:02.052Z,8.30
2017-12-25T06:39:32.452Z,8.67
2017-12-25T06:42:02.649Z,8.43
2017-12-25T06:44:33.982Z,9.17
2017-12-25T06:47:04.572Z,8.40
2017-12-25T06:49:35.245Z,9.10
2017-12-25T06:52:13.407Z,8.90
2017-12-25T06:54:44.855Z,9.03
2017-12-25T06:57:15.226Z,8.23
2017-12-25T06:59:47.380Z,9.60
2017-12-25T07:02:17.703Z,8.30
2017-12-25T07:04:48.160Z,8.23
2017-12-25T07:07:19.113Z,7.50
2017-12-25T07:09:49.663Z,8.33
2017-12-25T07:12:19.853Z,8.37
2017-12-25T07:14:51.153Z,6.93
2017-12-25T07:17:22.376Z,6.83
2017-12-25T07:19:52.828Z,7.27
2017-12-25T07:22:23.060Z,7.10
2017-12-25T07:24:53.774Z,7.10
2017-12-25T07:27:24.097Z,6.50
2017-12-25T07:29:54.649Z,6.93
2017-12-25T07:32:25.520Z,6.97
2017-12-25T07:34:55.817Z,7.40
2017-12-25T07:37:26.414Z,6.83
2017-12-25T07:39:56.921Z,8.07
2017-12-25T07:42:27.186Z,6.83
2017-12-25T07:44:58.433Z,6.57
2017-12-25T07:47:28.677Z,6.60
2017-12-25T07:49:59.765Z,8.00
2017-12-25T07:52:30.001Z,7.17
2017-12-25T07:55:00.696Z,5.83
2017-12-25T07:57:31.049Z,7.80
2017-12-25T08:02:32.417Z,7.03
2017-12-25T08:05:02.846Z,5.30
2017-12-25T08:07:33.073Z,5.57
2017-12-25T08:10:03.534Z,5.37
2017-12-25T08:12:33.718Z,4.87
2017-12-25T08:15:03.962Z,5.00
2017-12-25T08:17:34.346Z,5.30
2017-12-25T08:20:04.616Z,4.33
2017-12-25T08:22:34.768Z,4.80
2017-12-25T08:25:05.305Z,5.70
2017-12-25T08:27:36.483Z,5.23
2017-12-25T08:30:07.004Z,5.20
2017-12-25T08:32:37.305Z,6.30
2017-12-25T08:35:07.762Z,6.73
2017-12-25T08:37:38.084Z,7.63
2017-12-25T08:40:08.753Z,7.13
2017-12-25T08:42:39.760Z,6.87
2017-12-25T08:45:10.229Z,7.67
2017-12-25T08:47:40.563Z,9.00
2017-12-25T08:50:11.638Z,7.50
2017-12-25T08:52:42.770Z,7.50
2017-12-25T08:55:13.104Z,8.17
2017-12-25T08:57:43.452Z,6.90
2017-12-25T09:00:13.813Z,7.17
2017-12-25T09:02:44.214Z,7.23
2017-12-25T09:05:15.702Z,6.80
2017-12-25T09:07:45.957Z,6.30
2017-12-25T09:10:16.354Z,6.30
2017-12-25T09:12:46.736Z,5.63
2017-12-25T09:15:17.421Z,5.07
2017-12-25T09:17:47.738Z,4.97
2017-12-25T09:20:18.099Z,5.00
2017-12-25T09:22:48.746Z,4.87
2017-12-25T09:25:18.976Z,4.60
2017-12-25T09:27:49.986Z,5.40
2017-12-25T09:30:20.403Z,4.53
2017-12-25T09:32:50.790Z,4.27
2017-12-25T09:35:21.043Z,4.07
2017-12-25T09:37:58.368Z,4.60
2017-12-25T09:40:29.154Z,4.23
2017-12-25T09:42:59.863Z,3.80
2017-12-25T09:45:30.234Z,3.90
2017-12-25T09:48:00.749Z,4.60
2017-12-25T09:50:32.704Z,3.90
2017-12-25T09:53:03.243Z,4.63
2017-12-25T09:55:34.997Z,4.67
2017-12-25T09:58:06.464Z,4.27
2017-12-25T10:00:37.039Z,3.67
2017-12-25T10:03:08.381Z,4.13
2017-12-25T10:05:39.485Z,3.37
2017-12-25T10:08:09.944Z,4.00
2017-12-25T10:10:41.139Z,4.30
2017-12-25T10:13:12.905Z,4.47
2017-12-25T10:15:43.683Z,3.63
2017-12-25T10:18:15.101Z,4.67
2017-12-25T10:20:45.458Z,4.10
2017-12-25T10:23:16.832Z,3.43
2017-12-25T10:25:47.908Z,3.70
2017-12-25T10:28:20.459Z,3.83
2017-12-25T10:30:51.008Z,3.80
2017-12-25T10:33:21.526Z,3.60
2017-12-25T10:35:52.262Z,3.53
2017-12-25T10:38:22.856Z,2.90
2017-12-25T10:40:53.213Z,3.23
2017-12-25T10:43:23.749Z,3.80
2017-12-25T10:45:54.080Z,3.10
2017-12-25T10:48:25.393Z,2.90
2017-12-25T10:50:56.205Z,3.43
2017-12-25T10:53:27.558Z,3.17
2017-12-25T10:55:58.644Z,3.63
2017-12-25T10:58:29.169Z,3.10
2017-12-25T11:01:00.624Z,4.00
2017-12-25T11:03:31.099Z,3.33
2017-12-25T11:06:01.509Z,3.43
2017-12-25T11:08:31.861Z,3.73
2017-12-25T11:11:02.498Z,3.50
2017-12-25T11:13:32.991Z,3.77
2017-12-25T11:16:03.787Z,3.93
2017-12-25T11:18:35.890Z,3.77
2017-12-25T11:21:06.455Z,3.80
2017-12-25T11:23:36.757Z,4.37
2017-12-25T11:26:07.736Z,4.33
2017-12-25T11:28:38.095Z,4.67
2017-12-25T11:31:08.607Z,4.60
2017-12-25T11:33:39.121Z,4.50
2017-12-25T11:36:09.833Z,4.80
2017-12-25T11:38:40.293Z,4.40
2017-12-25T11:41:10.766Z,4.77
2017-12-25T11:43:41.976Z,5.00
2017-12-25T11:46:12.546Z,4.60
2017-12-25T11:48:42.919Z,3.90
2017-12-25T11:51:14.045Z,4.40
2017-12-25T11:53:45.601Z,5.10
2017-12-25T11:56:17.187Z,4.40
2017-12-25T11:58:52.452Z,5.17
2017-12-25T12:01:31.780Z,5.40
2017-12-25T12:04:03.550Z,4.83
2017-12-25T12:06:34.358Z,4.30
2017-12-25T12:09:05.284Z,5.67
2017-12-25T12:11:35.655Z,4.80
2017-12-25T12:14:06.981Z,4.63
2017-12-25T12:16:38.165Z,4.70
2017-12-25T12:19:09.187Z,4.77
2017-12-25T12:21:42.106Z,4.30
2017-12-25T12:25:15.897Z,4.93
2017-12-25T12:27:46.523Z,4.77
2017-12-25T12:30:17.053Z,4.23
2017-12-25T12:32:48.506Z,3.87
2017-12-25T12:35:19.241Z,3.90
2017-12-25T12:37:49.571Z,3.33
2017-12-25T12:40:20.184Z,4.30
2017-12-25T12:42:52.116Z,3.47
2017-12-25T12:45:22.381Z,3.10
2017-12-25T12:47:52.854Z,2.57
2017-12-25T12:50:23.249Z,2.17
2017-12-25T12:52:54.379Z,1.90
2017-12-25T12:55:25.162Z,2.33
2017-12-25T12:57:55.527Z,2.40
2017-12-25T13:00:26.166Z,2.13
2017-12-25T13:02:57.088Z,2.10
2017-12-25T13:05:27.923Z,2.40
2017-12-25T13:09:28.465Z,2.20
2017-12-25T13:11:59.703Z,2.40
2017-12-25T13:14:31.129Z,2.90
2017-12-25T13:17:01.726Z,2.97
2017-12-25T13:19:32.372Z,2.60
2017-12-25T13:22:02.978Z,2.40
2017-12-25T13:24:34.340Z,2.80
2017-12-25T13:27:04.939Z,2.33
2017-12-25T13:29:36.661Z,2.67
2017-12-25T13:32:08.077Z,3.03
2017-12-25T13:34:39.482Z,2.53
2017-12-25T13:37:10.932Z,3.00
2017-12-25T13:42:16.425Z,3.40
2017-12-25T13:44:47.268Z,3.43
2017-12-25T13:47:19.038Z,3.80
2017-12-25T13:49:49.727Z,4.60
2017-12-25T13:52:20.570Z,5.47
2017-12-25T13:54:51.441Z,4.80
2017-12-25T13:57:23.665Z,4.90
2017-12-25T13:59:54.304Z,4.60
2017-12-25T14:02:24.932Z,4.77
2017-12-25T14:04:55.459Z,4.47
2017-12-25T14:07:26.090Z,5.30
2017-12-25T14:09:56.467Z,5.50
2017-12-25T14:12:27.279Z,6.37
2017-12-25T14:14:57.676Z,5.17
2017-12-25T14:17:28.903Z,5.57
2017-12-25T14:20:01.123Z,6.83
2017-12-25T14:22:31.623Z,5.47
2017-12-25T14:25:02.153Z,6.07
2017-12-25T14:27:33.568Z,6.27
2017-12-25T14:30:04.304Z,6.20
2017-12-25T14:32:35.617Z,6.00
2017-12-25T14:35:06.867Z,5.10
2017-12-25T14:37:38.208Z,5.27
2017-12-25T14:40:08.974Z,5.50
2017-12-25T14:42:40.934Z,4.80
2017-12-25T14:45:12.052Z,5.57
2017-12-25T14:47:42.838Z,5.57
2017-12-25T14:50:13.614Z,5.70
2017-12-25T14:52:45.346Z,5.90
2017-12-25T14:55:15.829Z,5.17
2017-12-25T14:57:48.207Z,5.50
2017-12-25T15:00:19.280Z,5.00
2017-12-25T15:02:49.957Z,4.97
2017-12-25T15:05:20.607Z,4.50
2017-12-25T15:07:51.760Z,4.63
2017-12-25T15:10:23.248Z,4.63
2017-12-25T15:12:55.322Z,4.57
2017-12-25T15:15:26.936Z,4.70
2017-12-25T15:17:58.170Z,4.33
2017-12-25T15:21:58.077Z,5.00
2017-12-25T15:24:28.872Z,4.50
2017-12-25T15:26:59.257Z,4.90
2017-12-25T15:29:30.545Z,5.00
2017-12-25T15:32:01.066Z,5.73
2017-12-25T15:34:31.701Z,5.50
2017-12-25T15:37:02.067Z,5.67
2017-12-25T15:39:32.925Z,6.20
2017-12-25T15:42:04.268Z,5.73
2017-12-25T15:44:35.785Z,5.90
2017-12-25T15:47:06.841Z,6.33
2017-12-25T15:49:39.554Z,6.60
2017-12-25T15:52:10.322Z,5.80
2017-12-25T15:54:42.212Z,6.10
2017-12-25T15:57:14.355Z,5.77
2017-12-25T15:59:44.969Z,6.53
2017-12-25T16:02:15.501Z,5.00
2017-12-25T16:04:46.000Z,6.00
2017-12-25T16:07:16.598Z,6.23
2017-12-25T16:09:47.408Z,5.70
2017-12-25T16:12:17.947Z,7.00
2017-12-25T16:14:48.521Z,5.83
2017-12-25T16:17:19.732Z,4.67
2017-12-25T16:19:50.866Z,5.03
2017-12-25T16:22:21.962Z,3.97
2017-12-25T16:24:53.665Z,5.27
2017-12-25T16:27:25.150Z,3.93
2017-12-25T16:29:56.584Z,4.70
2017-12-25T16:32:27.165Z,4.37
2017-12-25T16:34:58.496Z,4.33
2017-12-25T16:37:29.514Z,5.60
2017-12-25T16:39:59.984Z,5.40
2017-12-25T16:42:32.120Z,5.60
2017-12-25T16:45:03.573Z,5.60
2017-12-25T16:47:34.124Z,5.93
2017-12-25T16:50:04.677Z,5.80
2017-12-25T16:52:35.419Z,6.40
2017-12-25T16:55:06.014Z,6.57
2017-12-25T16:57:37.435Z,6.60
2017-12-25T17:00:10.016Z,6.97
2017-12-25T17:02:40.726Z,6.53
2017-12-25T17:05:11.952Z,7.80
2017-12-25T17:07:42.736Z,7.50
2017-12-25T17:10:13.893Z,7.97
2017-12-25T17:12:45.025Z,7.47
2017-12-25T17:15:16.212Z,7.23
2017-12-25T17:17:46.742Z,7.63
2017-12-25T17:20:17.417Z,6.90
2017-12-25T17:22:48.417Z,7.00
2017-12-25T17:25:18.828Z,7.37
2017-12-25T17:27:49.577Z,7.13
2017-12-25T17:30:20.503Z,7.10
2017-12-25T17:32:51.279Z,7.10
2017-12-25T17:35:21.664Z,7.30
2017-12-25T17:37:51.968Z,6.23
2017-12-25T17:40:23.770Z,7.60
2017-12-25T17:42:55.853Z,7.30
2017-12-25T17:45:27.381Z,7.47
2017-12-25T17:47:59.344Z,7.80
2017-12-25T17:50:30.024Z,8.67
2017-12-25T17:53:01.556Z,7.27
2017-12-25T17:55:32.615Z,7.70
2017-12-25T17:58:03.013Z,7.80
2017-12-25T18:00:34.181Z,7.10
2017-12-25T18:03:05.578Z,6.97
2017-12-25T18:05:36.857Z,7.40
2017-12-25T18:08:09.092Z,7.00
2017-12-25T18:10:40.141Z,5.90
2017-12-25T18:13:11.243Z,6.00
2017-12-25T18:15:41.733Z,5.70
2017-12-25T18:18:12.718Z,5.27
2017-12-25T18:20:43.152Z,6.70
2017-12-25T18:23:13.463Z,5.30
2017-12-25T18:25:43.891Z,5.80
2017-12-25T18:28:14.313Z,5.47
2017-12-25T18:30:44.944Z,5.57
2017-12-25T18:33:15.304Z,5.50
2017-12-25T18:35:45.990Z,4.80
2017-12-25T18:38:16.362Z,4.70
2017-12-25T18:40:46.885Z,4.93
2017-12-25T18:43:17.314Z,5.27
2017-12-25T18:45:47.797Z,4.80
2017-12-25T18:48:18.394Z,4.70
2017-12-25T18:50:49.030Z,4.80
2017-12-25T18:53:19.369Z,5.10
2017-12-25T18:55:50.520Z,4.00
2017-12-25T18:58:21.640Z,4.40
2017-12-25T19:00:52.961Z,4.33
2017-12-25T19:03:23.729Z,4.63
2017-12-25T19:05:54.238Z,4.40
2017-12-25T19:08:25.144Z,4.60
2017-12-25T19:10:55.767Z,4.63
2017-12-25T19:13:26.762Z,4.40
2017-12-25T19:15:57.919Z,4.57
2017-12-25T19:18:28.611Z,4.90
2017-12-25T19:21:00.349Z,5.60
2017-12-25T19:23:31.554Z,4.87
2017-12-25T19:26:02.825Z,4.80
2017-12-25T19:28:33.450Z,4.50
2017-12-25T19:31:04.341Z,5.73
2017-12-25T19:33:35.746Z,5.50
2017-12-25T19:36:06.060Z,5.83
2017-12-25T19:38:36.626Z,5.60
2017-12-25T19:41:06.914Z,5.50
2017-12-25T19:43:37.680Z,5.70
2017-12-25T19:46:08.264Z,5.77
2017-12-25T19:48:39.514Z,5.10
2017-12-25T19:51:10.053Z,5.63
2017-12-25T19:53:40.754Z,5.10
2017-12-25T19:56:12.060Z,5.00
2017-12-25T19:58:42.856Z,5.33
2017-12-25T20:01:13.555Z,4.80
2017-12-25T20:03:44.578Z,5.37
2017-12-25T20:06:15.778Z,5.30
2017-12-25T20:08:46.300Z,4.83
2017-12-25T20:11:16.856Z,4.07
2017-12-25T20:13:47.264Z,4.77
2017-12-25T20:16:17.969Z,5.50
2017-12-25T20:18:48.737Z,4.80
2017-12-25T20:21:19.340Z,5.80
2017-12-25T20:23:49.571Z,4.17
2017-12-25T20:26:19.870Z,4.80
2017-12-25T20:28:51.379Z,4.83
2017-12-25T20:31:22.673Z,4.57
2017-12-25T20:33:52.946Z,4.67
2017-12-25T20:36:24.480Z,4.70
2017-12-25T20:38:55.057Z,5.30
2017-12-25T20:41:25.275Z,5.00
2017-12-25T20:45:24.993Z,4.73
2017-12-25T20:47:55.521Z,4.67
2017-12-25T20:50:26.258Z,4.33
2017-12-25T20:52:57.692Z,4.37
2017-12-25T20:55:28.350Z,4.40
2017-12-25T20:57:58.920Z,4.80
2017-12-25T21:00:29.750Z,4.37
2017-12-25T21:03:00.616Z,4.87
2017-12-25T21:05:31.189Z,4.50
2017-12-25T21:08:01.966Z,4.67
2017-12-25T21:10:32.611Z,4.13
2017-12-25T21:13:03.553Z,4.13
2017-12-25T21:15:35.219Z,4.53
2017-12-25T21:18:06.146Z,4.60
2017-12-25T21:20:36.892Z,4.77
2017-12-25T21:23:07.384Z,4.80
2017-12-25T21:25:37.728Z,4.00
2017-12-25T21:28:08.183Z,4.00
2017-12-25T21:30:38.543Z,3.70
2017-12-25T21:33:09.407Z,4.73
2017-12-25T21:35:39.802Z,4.00
2017-12-25T21:38:10.283Z,3.77
2017-12-25T21:40:40.786Z,3.57
2017-12-25T21:43:11.449Z,4.50
2017-12-25T21:45:42.347Z,3.13
2017-12-25T21:48:13.124Z,3.87
2017-12-25T21:50:43.505Z,3.30
2017-12-25T21:53:13.939Z,3.10
2017-12-25T21:55:44.419Z,3.30
2017-12-25T21:58:15.767Z,3.33
2017-12-25T22:00:47.078Z,3.60
2017-12-25T22:03:18.290Z,4.03
2017-12-25T22:05:49.245Z,3.40
2017-12-25T22:08:20.623Z,4.20
2017-12-25T22:10:52.409Z,3.43
2017-12-25T22:13:22.704Z,3.27
2017-12-25T22:15:53.220Z,3.57
2017-12-25T22:18:23.812Z,2.70
2017-12-25T22:20:54.331Z,3.33
2017-12-25T22:23:26.853Z,3.07
2017-12-25T22:25:58.196Z,3.33
2017-12-25T22:28:29.418Z,3.10
2017-12-25T22:31:00.435Z,3.20
2017-12-25T22:33:31.324Z,2.87
2017-12-25T22:36:01.735Z,3.40
2017-12-25T22:38:32.129Z,3.00
2017-12-25T22:41:04.450Z,2.60
2017-12-25T22:43:34.772Z,3.13
2017-12-25T22:46:05.176Z,3.60
2017-12-25T22:48:35.698Z,3.97
2017-12-25T22:51:06.067Z,3.60
2017-12-25T22:53:36.981Z,3.03
2017-12-25T22:56:07.402Z,3.43
2017-12-25T22:58:37.687Z,3.10
2017-12-25T23:01:09.453Z,4.03
2017-12-25T23:03:39.873Z,3.70
2017-12-25T23:06:10.095Z,3.90
2017-12-25T23:08:40.800Z,3.43
2017-12-25T23:11:12.141Z,3.73
2017-12-25T23:13:43.427Z,3.47
2017-12-25T23:16:14.129Z,4.10
2017-12-25T23:18:46.192Z,3.77
2017-12-25T23:21:17.596Z,4.53
2017-12-25T23:23:48.801Z,4.37
2017-12-25T23:26:20.033Z,4.10
2017-12-25T23:28:51.277Z,3.80
2017-12-25T23:31:23.137Z,4.40
2017-12-25T23:33:54.373Z,3.97
2017-12-25T23:39:00.499Z,3.60
2017-12-25T23:41:30.765Z,3.60
2017-12-25T23:44:01.181Z,3.70
2017-12-25T23:46:32.668Z,4.70
2017-12-25T23:49:04.614Z,4.10
2017-12-25T23:51:35.175Z,3.70
2017-12-25T23:54:06.638Z,4.10
2017-12-25T23:56:37.892Z,3.67
2017-12-25T23:59:08.373Z,4.13
